Terminal Aerodrome Forecast
Issued by NWS Omaha/Valley, NE

Home | Current Version | Previous Version | Text Only | Print | Product List | Glossary On
Versions: 1 2 3 4 5 6 7 8 9 10 11 12 13 14 15 16 17 18 19 20 21 22 23 24 25 26 27 28 29 30 31 32 33 34 35 36
000
FTUS43 KOAX 171733
TAFOFK
TAF
KOFK 171733Z 1718/1818 14004KT P6SM SCT250
     FM180000 VRB03KT P6SM SCT015 BKN120
      TEMPO 1804/1808 4SM BR BKN015
     FM180800 10004KT 3SM BR BKN015
      TEMPO 1811/1814 2SM BR BKN004
     FM181600 14010KT P6SM SCT025 BKN250=

USA.gov is the U.S. government's official web portal to all federal, state and local government web resources and services.